Inversion Research: Above Escarpment

*Note: All times are displayed in the local standard time of the station location.
**Rain - Equipment is designed to accurately record liquid precipitation; under conditions when precipitation is not in liquid form, the data displayed may not properly reflect rainfall values.

Date Max Temp
(°C)
Min Temp
(°C)
Avg Temp
(°C)
Rain (mm) Avg RH (%)
Mon, Oct 22, 2018 12.1 2.1 6.4 - 82.1
Sun, Oct 21, 2018 6.4 1.9 3.9 - 71.1
Sat, Oct 20, 2018 13.3 5.4 8.9 - 87.5
Fri, Oct 19, 2018 14.5 6.6 11.0 - 71.0
Thu, Oct 18, 2018 8.7 0.2 4.5 - 75.5
Wed, Oct 17, 2018 10.9 2.3 7.3 - 70.2
Tue, Oct 16, 2018 12.5 0.4 6.9 - 70.6
DateTime Avg Temp (°C) Rain (mm) RH (%)
Tue, Oct 23, 2018 01:00 1.6 - 100.0
Tue, Oct 23, 2018 00:00 2.2 - 100.0
Mon, Oct 22, 2018 23:00 3.1 - 100.0
Mon, Oct 22, 2018 22:00 4.1 - 99.0
Mon, Oct 22, 2018 21:00 6.0 - 93.0
Mon, Oct 22, 2018 20:00 7.5 - 87.0
Mon, Oct 22, 2018 19:00 8.9 - 79.0
Mon, Oct 22, 2018 18:00 10.3 - 72.8
Mon, Oct 22, 2018 17:00 10.6 - 72.0
Mon, Oct 22, 2018 16:00 10.5 - 73.0
Mon, Oct 22, 2018 15:00 10.3 - 77.3
Mon, Oct 22, 2018 14:00 11.1 - 73.0
Mon, Oct 22, 2018 13:00 10.4 - 74.5
Mon, Oct 22, 2018 12:00 9.7 - 71.0
Mon, Oct 22, 2018 11:00 9.2 - 61.3
Mon, Oct 22, 2018 10:00 7.7 - 73.0
Mon, Oct 22, 2018 09:00 5.0 - 92.3
Mon, Oct 22, 2018 08:00 3.8 - 93.0
Mon, Oct 22, 2018 07:00 4.1 - 87.3
Mon, Oct 22, 2018 06:00 3.7 - 85.0
Mon, Oct 22, 2018 05:00 3.2 - 84.0
Mon, Oct 22, 2018 04:00 3.0 - 85.8
Mon, Oct 22, 2018 03:00 3.4 - 81.3
Mon, Oct 22, 2018 02:00 3.1 - 79.5
Mon, Oct 22, 2018 01:00 3.2 - 77.8
Mon, Oct 22, 2018 00:00 3.3 - 76.3
Sun, Oct 21, 2018 23:00 3.3 - 76.3
Sun, Oct 21, 2018 22:00 3.4 - 75.5
Sun, Oct 21, 2018 21:00 3.6 - 74.3
Sun, Oct 21, 2018 20:00 4.0 - 70.8
Sun, Oct 21, 2018 19:00 4.6 - 71.5
Sun, Oct 21, 2018 18:00 5.1 - 70.8
Sun, Oct 21, 2018 17:00 5.6 - 63.8
Sun, Oct 21, 2018 16:00 5.7 - 62.3
Sun, Oct 21, 2018 15:00 5.9 - 61.8
Sun, Oct 21, 2018 14:00 5.3 - 61.8
Sun, Oct 21, 2018 13:00 5.3 - 60.5
Sun, Oct 21, 2018 12:00 4.4 - 62.3
Sun, Oct 21, 2018 11:00 3.6 - 66.3
Sun, Oct 21, 2018 10:00 3.1 - 71.0
Sun, Oct 21, 2018 09:00 2.4 - 79.8
Sun, Oct 21, 2018 08:00 1.9 - 84.0
Sun, Oct 21, 2018 07:00 2.0 - 79.3
Sun, Oct 21, 2018 06:00 2.1 - 79.3
Sun, Oct 21, 2018 05:00 2.8 - 72.3
Sun, Oct 21, 2018 04:00 3.3 - 72.8
Sun, Oct 21, 2018 03:00 3.7 - 74.8
Sun, Oct 21, 2018 02:00 4.6 - 69.0


asterix Register now to access more data! asterix